Time;durP1;ratioP1;P1;durP2;ratioP2;P2;SDS_P1;SDS_P2;PMS_P1;PMS_P2;Temp;Humidity;BMP_temperature;BMP_pressure;BME280_temperature;BME280_humidity;BME280_pressure;Samples;Min_cycle;Max_cycle;Signal;HPM_P1;HPM_P2
2024/04/15 00:04:56;;;;;;;0.00;0.00;;;;;;;10.74;55.12;100979.06;16797024;26;20000;-52
2024/04/15 00:12:31;;;;;;;1.25;0.75;;;;;;;10.30;56.75;100977.72;16796965;26;20459;-49
2024/04/15 00:20:09;;;;;;;0.75;0.28;;;;;;;10.75;55.54;100956.53;16795086;26;20003;-49
2024/04/15 00:27:46;;;;;;;0.00;0.00;;;;;;;10.76;55.55;100974.31;16796475;26;20014;-49
2024/04/15 00:35:23;;;;;;;0.00;0.00;;;;;;;11.06;54.66;100979.28;16782508;26;19999;-55
2024/04/15 00:43:00;;;;;;;0.00;0.00;;;;;;;10.97;54.42;100989.41;16797313;26;20076;-50
2024/04/15 00:50:41;;;;;;;0.00;0.00;;;;;;;11.08;55.31;100985.25;16795495;26;20011;-51
2024/04/15 00:58:18;;;;;;;0.00;0.00;;;;;;;10.97;55.58;100949.94;16795483;26;20004;-52
2024/04/15 01:05:56;;;;;;;0.65;0.22;;;;;;;11.18;55.70;100950.75;16793921;26;20000;-50
2024/04/15 01:13:31;;;;;;;0.00;0.00;;;;;;;11.02;56.17;100933.19;16793832;26;19995;-55
2024/04/15 01:21:10;;;;;;;0.00;0.00;;;;;;;11.20;55.36;100921.81;16680429;26;20055;-52
2024/04/15 01:28:48;;;;;;;0.00;0.00;;;;;;;10.98;54.83;100929.28;16682320;26;20011;-53
2024/04/15 01:36:23;;;;;;;0.00;0.00;;;;;;;11.05;56.70;100913.13;16670167;26;20007;-55
2024/04/15 01:44:01;;;;;;;0.00;0.00;;;;;;;11.20;55.61;100924.50;16683016;26;20036;-53
2024/04/15 01:51:37;;;;;;;0.00;0.00;;;;;;;11.08;54.78;100908.19;16682186;26;20048;-49
2024/04/15 01:59:15;;;;;;;0.00;0.00;;;;;;;10.99;54.91;100879.88;16680097;26;20451;-49
2024/04/15 02:06:50;;;;;;;0.65;0.28;;;;;;;10.56;56.28;100866.94;16680387;26;20443;-54
2024/04/15 02:14:27;;;;;;;0.00;0.00;;;;;;;10.34;55.65;100849.38;16689105;26;20015;-47
2024/04/15 02:22:05;;;;;;;0.00;0.00;;;;;;;10.59;57.12;100869.22;16787951;26;20011;-48
2024/04/15 02:29:52;;;;;;;2.75;1.15;;;;;;;10.87;55.45;100876.22;16761437;26;20000;-53
2024/04/15 02:37:27;;;;;;;0.00;0.00;;;;;;;10.72;55.99;100860.28;16790222;26;19999;-49
2024/04/15 02:45:11;;;;;;;0.00;0.00;;;;;;;10.58;55.95;100864.84;16789130;26;20020;-51
2024/04/15 02:52:49;;;;;;;0.00;0.00;;;;;;;10.63;57.08;100832.88;16792684;26;20556;-50
2024/04/15 03:00:26;;;;;;;0.00;0.00;;;;;;;10.43;59.00;100856.19;16788785;26;20018;-48
2024/04/15 03:08:02;;;;;;;0.10;0.10;;;;;;;10.21;59.71;100815.28;16787459;26;20001;-51
2024/04/15 03:15:39;;;;;;;0.22;0.22;;;;;;;9.53;62.05;100804.66;16799097;21;20043;-50
2024/04/15 03:23:14;;;;;;;0.00;0.00;;;;;;;10.02;62.78;100810.72;16788673;26;20333;-51
2024/04/15 03:30:52;;;;;;;0.00;0.00;;;;;;;10.44;59.70;100780.88;16789829;26;20015;-50
2024/04/15 03:38:30;;;;;;;0.10;0.10;;;;;;;10.43;60.71;100784.56;16789127;26;20024;-54
2024/04/15 03:46:08;;;;;;;0.00;0.00;;;;;;;10.07;62.52;100768.88;16787785;26;20000;-53
2024/04/15 03:53:43;;;;;;;0.00;0.00;;;;;;;10.02;61.93;100759.78;16749890;26;20014;-54
2024/04/15 04:01:21;;;;;;;0.03;0.03;;;;;;;9.38;61.01;100734.34;16774831;26;20105;-53
2024/04/15 04:08:57;;;;;;;0.10;0.10;;;;;;;8.97;61.33;100707.66;16791511;26;20031;-52
2024/04/15 04:16:35;;;;;;;0.08;0.08;;;;;;;9.17;60.69;100700.50;16729996;26;20003;-52
2024/04/15 04:24:11;;;;;;;0.00;0.00;;;;;;;9.26;59.89;100703.81;16789537;26;20007;-51
2024/04/15 04:31:50;;;;;;;0.00;0.00;;;;;;;8.94;61.41;100690.13;16788983;26;20446;-53
2024/04/15 04:39:25;;;;;;;0.00;0.00;;;;;;;9.22;60.71;100713.28;16774787;26;20171;-53
2024/04/15 04:47:08;;;;;;;0.13;0.13;;;;;;;9.10;62.26;100727.28;16793486;26;20393;-54
2024/04/15 04:54:46;;;;;;;0.00;0.00;;;;;;;8.71;63.73;100738.63;16797791;26;20439;-54
2024/04/15 05:02:25;;;;;;;0.00;0.00;;;;;;;9.33;62.51;100734.97;16783580;26;20365;-55
2024/04/15 05:10:00;;;;;;;0.00;0.00;;;;;;;9.60;61.27;100751.91;16796958;26;20446;-52
2024/04/15 05:17:39;;;;;;;0.00;0.00;;;;;;;9.59;62.25;100758.28;16796780;26;20043;-54
2024/04/15 05:25:15;;;;;;;0.00;0.00;;;;;;;10.02;62.26;100738.34;16795377;26;20005;-53
2024/04/15 05:32:53;;;;;;;0.10;0.10;;;;;;;10.06;60.72;100735.03;16799144;26;20087;-53
2024/04/15 05:40:28;;;;;;;0.00;0.00;;;;;;;11.91;55.34;100725.44;16803554;26;20007;-51
2024/04/15 05:48:07;;;;;;;4.85;1.08;;;;;;;11.32;56.77;100721.25;16802807;26;19996;-55
2024/04/15 05:55:43;;;;;;;0.00;0.00;;;;;;;11.30;56.36;100701.03;16797410;26;20094;-51
2024/04/15 06:03:21;;;;;;;0.00;0.00;;;;;;;11.13;56.39;100703.38;16763445;26;19995;-52
2024/04/15 06:10:56;;;;;;;0.00;0.00;;;;;;;11.22;56.85;100700.22;16793907;26;20034;-51
2024/04/15 06:18:34;;;;;;;0.00;0.00;;;;;;;11.29;56.94;100694.84;16794231;26;20454;-50
2024/04/15 06:26:09;;;;;;;0.00;0.00;;;;;;;11.11;58.00;100687.50;16793321;26;20410;-52
2024/04/15 06:33:47;;;;;;;0.47;0.30;;;;;;;11.37;57.40;100675.75;16793347;26;20030;-51
2024/04/15 06:41:23;;;;;;;0.10;0.10;;;;;;;13.59;53.76;100677.50;16779704;26;20015;-53
2024/04/15 06:49:00;;;;;;;0.05;0.05;;;;;;;13.23;55.50;100669.31;16791908;26;20076;-54
2024/04/15 06:56:38;;;;;;;0.00;0.00;;;;;;;12.54;57.15;100662.50;16791320;26;20275;-53
2024/04/15 07:04:16;;;;;;;0.30;0.28;;;;;;;11.95;58.98;100648.66;16792684;26;20011;-52
2024/04/15 07:11:52;;;;;;;0.00;0.00;;;;;;;11.60;60.45;100628.66;16761696;26;20008;-52
2024/04/15 07:19:32;;;;;;;0.10;0.10;;;;;;;12.40;58.83;100624.19;16791882;26;20015;-51
2024/04/15 07:27:07;;;;;;;0.13;0.13;;;;;;;12.54;57.61;100622.13;16790607;26;20473;-54
2024/04/15 07:34:47;;;;;;;0.00;0.00;;;;;;;11.72;60.10;100608.91;16790890;26;20472;-52
2024/04/15 07:42:22;;;;;;;0.45;0.45;;;;;;;12.01;59.20;100595.81;16777285;26;20010;-50
2024/04/15 07:50:00;;;;;;;0.00;0.00;;;;;;;13.08;57.06;100579.94;16790904;26;20003;-53
2024/04/15 07:57:36;;;;;;;0.00;0.00;;;;;;;13.63;54.84;100574.31;16792620;26;19999;-56
2024/04/15 08:05:15;;;;;;;0.00;0.00;;;;;;;12.87;53.50;100572.38;16796250;26;20000;-53
2024/04/15 08:12:52;;;;;;;0.20;0.20;;;;;;;12.63;54.03;100566.91;16791049;26;20010;-50
2024/04/15 08:20:32;;;;;;;0.00;0.00;;;;;;;13.23;53.46;100560.66;16762763;26;20068;-55
2024/04/15 08:28:07;;;;;;;0.52;0.20;;;;;;;13.39;53.67;100556.50;16767584;26;20057;-52
2024/04/15 08:35:45;;;;;;;0.70;0.43;;;;;;;13.03;52.75;100537.53;16799510;26;20022;-52
2024/04/15 08:43:24;;;;;;;0.00;0.00;;;;;;;13.61;52.76;100535.13;16785661;26;20000;-50
2024/04/15 09:00:14;;;;;;;0.00;0.00;;;;;;;13.97;52.26;100520.56;16790227;26;20449;-53
2024/04/15 09:07:52;;;;;;;0.30;0.17;;;;;;;13.93;49.96;100504.00;16810257;26;20300;-52
2024/04/15 09:15:30;;;;;;;0.00;0.00;;;;;;;14.22;49.18;100488.69;16776137;21;20000;-53
2024/04/15 09:23:11;;;;;;;0.00;0.00;;;;;;;15.67;45.34;100474.63;16692815;26;20011;-49
2024/04/15 09:30:51;;;;;;;0.00;0.00;;;;;;;17.58;43.35;100448.78;16693943;26;20369;-50
2024/04/15 09:38:26;;;;;;;0.05;0.05;;;;;;;16.30;43.35;100432.59;16763202;26;20014;-48
2024/04/15 09:46:07;;;;;;;0.00;0.00;;;;;;;14.04;48.31;100432.19;16802750;26;20014;-48
2024/04/15 09:53:45;;;;;;;0.00;0.00;;;;;;;15.18;46.66;100410.38;16802129;26;19999;-48
2024/04/15 10:01:26;;;;;;;0.17;0.10;;;;;;;16.67;42.59;100391.19;16771971;26;20039;-48
2024/04/15 10:09:02;;;;;;;0.00;0.00;;;;;;;15.72;45.29;100377.28;16803090;26;20105;-47
2024/04/15 10:16:40;;;;;;;0.03;0.03;;;;;;;14.91;45.50;100304.81;16802051;26;20327;-48
2024/04/15 10:24:20;;;;;;;0.00;0.00;;;;;;;15.05;44.58;100352.06;16802515;26;20443;-46
2024/04/15 10:32:00;;;;;;;0.00;0.00;;;;;;;15.37;46.81;100345.16;16801478;26;20003;-47
2024/04/15 10:39:46;;;;;;;0.00;0.00;;;;;;;14.70;48.59;100335.34;16713448;26;20073;-49
2024/04/15 10:47:23;;;;;;;0.00;0.00;;;;;;;13.46;49.78;100333.41;16727487;26;20003;-47
2024/04/15 10:54:59;;;;;;;0.00;0.00;;;;;;;13.64;50.22;100322.44;16793572;26;20003;-49
2024/04/15 11:02:40;;;;;;;0.00;0.00;;;;;;;12.57;53.98;100322.00;16791833;26;20015;-47
2024/04/15 11:10:17;;;;;;;0.38;0.13;;;;;;;12.35;58.51;100321.75;16792004;26;20250;-47
2024/04/15 11:17:56;;;;;;;0.05;0.03;;;;;;;11.79;58.51;100310.34;16790724;26;19999;-47
2024/04/15 11:25:32;;;;;;;1.45;0.57;;;;;;;12.20;59.11;100295.28;16790565;26;20431;-53
2024/04/15 11:33:11;;;;;;;0.32;0.32;;;;;;;14.11;52.69;100286.31;16789989;26;20004;-47
2024/04/15 11:40:47;;;;;;;0.03;0.03;;;;;;;14.06;51.86;100251.94;16685790;26;20015;-47
2024/04/15 11:48:26;;;;;;;0.00;0.00;;;;;;;15.27;50.56;100238.53;16730483;26;20097;-49
2024/04/15 11:56:07;;;;;;;0.00;0.00;;;;;;;15.07;50.14;100213.97;16795912;26;20011;-49
2024/04/15 12:03:47;;;;;;;0.30;0.20;;;;;;;16.87;45.85;100174.50;16799539;26;20011;-48
2024/04/15 12:11:23;;;;;;;0.55;0.30;;;;;;;16.10;46.55;100154.31;16801053;26;20003;-49
2024/04/15 12:19:00;;;;;;;0.03;0.03;;;;;;;15.30;47.96;100137.97;16768486;26;19999;-52
2024/04/15 12:26:36;;;;;;;0.00;0.00;;;;;;;15.31;48.56;100103.63;16794009;26;20457;-52
2024/04/15 12:34:18;;;;;;;0.00;0.00;;;;;;;16.59;47.33;100091.72;16784721;26;20000;-48
2024/04/15 12:41:54;;;;;;;0.35;0.35;;;;;;;17.51;45.67;100070.19;16687424;26;20023;-49
2024/04/15 12:49:32;;;;;;;0.00;0.00;;;;;;;17.08;45.34;100051.47;16756207;26;20003;-49
2024/04/15 12:57:09;;;;;;;0.00;0.00;;;;;;;15.36;46.82;100000.09;16798118;26;20338;-46
2024/04/15 13:04:48;;;;;;;0.30;0.30;;;;;;;15.48;47.90;100000.72;16797071;26;20128;-47
2024/04/15 13:12:26;;;;;;;0.32;0.32;;;;;;;14.93;50.21;99983.84;16799481;26;20457;-52
2024/04/15 13:20:06;;;;;;;0.00;0.00;;;;;;;14.64;49.56;99942.78;16799193;26;20000;-49
2024/04/15 13:27:41;;;;;;;0.20;0.20;;;;;;;15.19;48.92;99941.59;16793760;26;20076;-49
2024/04/15 13:35:19;;;;;;;0.10;0.10;;;;;;;15.21;48.33;99923.22;16773106;26;20010;-51
2024/04/15 13:42:58;;;;;;;0.00;0.00;;;;;;;15.86;45.37;99907.63;16685823;26;20016;-48
2024/04/15 13:50:37;;;;;;;0.35;0.22;;;;;;;15.59;45.27;99885.28;16769067;26;20537;-49
2024/04/15 13:58:14;;;;;;;0.00;0.00;;;;;;;15.86;47.21;99863.50;16793578;26;20053;-50
2024/04/15 14:05:56;;;;;;;0.30;0.17;;;;;;;15.46;47.28;99846.03;16794359;26;20206;-47
2024/04/15 14:13:31;;;;;;;0.00;0.00;;;;;;;15.12;46.32;99832.06;16794220;26;20201;-49
2024/04/15 14:21:09;;;;;;;2.38;0.47;;;;;;;15.32;45.29;99826.75;16793027;26;20011;-48
2024/04/15 14:28:45;;;;;;;0.00;0.00;;;;;;;15.32;45.38;99811.34;16794413;26;19999;-46
2024/04/15 14:36:25;;;;;;;0.10;0.10;;;;;;;14.96;46.08;99758.19;16750023;26;20065;-51
2024/04/15 14:44:02;;;;;;;0.45;0.45;;;;;;;15.12;44.84;99742.88;16683379;26;20012;-48
2024/04/15 14:51:41;;;;;;;0.00;0.00;;;;;;;15.21;44.29;99725.88;16781629;26;19999;-46
2024/04/15 14:59:17;;;;;;;0.00;0.00;;;;;;;15.70;43.80;99720.06;16792837;26;20126;-52
2024/04/15 15:06:55;;;;;;;0.00;0.00;;;;;;;15.52;43.94;99693.50;16763655;26;20426;-49
2024/04/15 15:14:32;;;;;;;0.00;0.00;;;;;;;15.71;44.09;99680.28;16788631;26;20015;-48
2024/04/15 15:22:12;;;;;;;0.00;0.00;;;;;;;15.85;44.79;99661.63;16792432;26;20395;-50
2024/04/15 15:29:48;;;;;;;1.02;0.35;;;;;;;14.80;45.71;99639.25;16770568;26;20069;-47
2024/04/15 15:37:26;;;;;;;0.05;0.05;;;;;;;15.01;46.03;99610.44;16652906;26;20019;-48
2024/04/15 15:45:01;;;;;;;0.10;0.10;;;;;;;14.42;47.93;99583.72;16680732;26;20000;-49
2024/04/15 15:52:39;;;;;;;0.52;0.52;;;;;;;14.83;47.74;99566.84;16680254;26;20446;-48
2024/04/15 16:00:15;;;;;;;0.10;0.10;;;;;;;15.31;46.51;99546.66;16678592;26;20019;-54
2024/04/15 16:07:54;;;;;;;1.00;0.60;;;;;;;15.05;47.46;99543.94;16679860;26;20005;-50
2024/04/15 16:15:29;;;;;;;0.10;0.10;;;;;;;14.88;48.57;99516.38;16773982;26;20000;-49
2024/04/15 16:23:08;;;;;;;0.00;0.00;;;;;;;15.29;49.02;99495.56;16788111;26;20011;-51
2024/04/15 16:30:44;;;;;;;0.15;0.15;;;;;;;14.94;49.24;99477.47;16787114;26;20358;-47
2024/04/15 16:38:22;;;;;;;0.28;0.20;;;;;;;14.60;50.01;99460.16;16718611;26;19996;-48
2024/04/15 16:45:58;;;;;;;0.00;0.00;;;;;;;14.87;49.60;99439.06;16690253;26;20441;-46
2024/04/15 16:53:35;;;;;;;0.10;0.10;;;;;;;14.46;51.19;99427.44;16784976;26;20071;-47
2024/04/15 17:01:11;;;;;;;0.00;0.00;;;;;;;13.94;53.03;99421.09;16798628;26;20016;-49
2024/04/15 17:08:49;;;;;;;0.47;0.30;;;;;;;14.37;51.96;99407.44;16798402;26;20098;-49
2024/04/15 17:16:25;;;;;;;0.20;0.20;;;;;;;14.12;52.87;99373.09;16716852;26;20015;-46
2024/04/15 17:24:06;;;;;;;0.00;0.00;;;;;;;14.58;51.75;99365.88;16687156;26;20380;-47
2024/04/15 17:31:41;;;;;;;0.00;0.00;;;;;;;14.04;53.14;99350.97;16686088;26;20483;-51
2024/04/15 17:39:24;;;;;;;0.00;0.00;;;;;;;14.06;53.41;99350.69;16730903;26;20052;-48
2024/04/15 17:47:02;;;;;;;0.22;0.22;;;;;;;13.63;54.96;99331.16;16704968;26;20490;-47
2024/04/15 17:54:40;;;;;;;0.25;0.20;;;;;;;13.52;55.01;99321.41;16686055;26;20008;-48
2024/04/15 18:02:15;;;;;;;0.20;0.10;;;;;;;13.57;55.42;99307.13;16713827;26;20032;-50
2024/04/15 18:09:53;;;;;;;0.13;0.13;;;;;;;13.50;55.13;99270.47;16685929;26;20448;-48
2024/04/15 18:17:31;;;;;;;0.00;0.00;;;;;;;13.58;54.96;99268.34;16780526;26;20298;-48
2024/04/15 18:25:10;;;;;;;0.00;0.00;;;;;;;13.67;54.96;99262.16;16795249;26;20011;-46
2024/04/15 18:32:45;;;;;;;1.15;0.38;;;;;;;13.84;54.21;99255.69;16797255;26;20057;-51
2024/04/15 18:40:23;;;;;;;0.00;0.00;;;;;;;13.46;55.93;99247.00;16696687;26;20485;-49
2024/04/15 18:47:59;;;;;;;0.05;0.05;;;;;;;13.43;55.87;99231.34;16687178;26;20019;-50
2024/04/15 18:55:37;;;;;;;0.00;0.00;;;;;;;13.27;56.30;99215.16;16777063;26;20015;-53
2024/04/15 19:03:16;;;;;;;0.00;0.00;;;;;;;13.01;57.31;99216.94;16791077;26;20003;-48
2024/04/15 19:10:53;;;;;;;0.00;0.00;;;;;;;12.20;61.16;99203.00;16792936;26;20018;-49
2024/04/15 19:18:28;;;;;;;0.28;0.10;;;;;;;12.24;60.73;99222.94;16790926;26;20004;-50
2024/04/15 19:26:07;;;;;;;0.30;0.30;;;;;;;12.12;61.26;99209.66;16791419;26;20438;-50
2024/04/15 19:33:42;;;;;;;0.68;0.30;;;;;;;11.26;63.48;99204.31;16789614;26;19996;-49
2024/04/15 19:41:19;;;;;;;0.35;0.35;;;;;;;10.64;66.19;99175.94;16679603;26;20455;-51
2024/04/15 19:48:54;;;;;;;0.32;0.20;;;;;;;10.59;66.04;99161.66;16680706;26;20056;-47
2024/04/15 19:56:33;;;;;;;0.00;0.00;;;;;;;10.63;64.85;99143.97;16775260;26;19999;-50
2024/04/15 20:04:12;;;;;;;0.00;0.00;;;;;;;10.67;64.15;99113.69;16788919;26;20324;-49
2024/04/15 20:11:49;;;;;;;0.00;0.00;;;;;;;10.46;64.92;99111.84;16788892;26;20011;-50
2024/04/15 20:19:24;;;;;;;0.22;0.20;;;;;;;10.55;64.83;99122.97;16797099;26;20466;-45
2024/04/15 20:27:04;;;;;;;0.10;0.10;;;;;;;9.72;67.19;99146.94;16803525;26;20673;-47
2024/04/15 20:34:39;;;;;;;0.00;0.00;;;;;;;9.61;69.05;99228.22;16788641;26;20339;-49
2024/04/15 20:42:17;;;;;;;0.00;0.00;;;;;;;9.17;63.86;99246.66;16693087;26;20114;-49
2024/04/15 20:49:54;;;;;;;0.73;0.32;;;;;;;9.03;63.97;99264.03;16691573;26;20106;-47
2024/04/15 20:57:33;;;;;;;0.00;0.00;;;;;;;9.16;64.00;99280.66;16782461;26;20014;-52
2024/04/15 21:05:08;;;;;;;0.00;0.00;;;;;;;8.52;65.67;99285.13;16796250;26;20116;-50
2024/04/15 21:12:48;;;;;;;0.00;0.00;;;;;;;8.68;65.14;99318.41;16797224;26;20423;-49
2024/04/15 21:20:23;;;;;;;0.00;0.00;;;;;;;8.26;67.22;99321.13;16809476;21;20023;-47
2024/04/15 21:28:06;;;;;;;0.00;0.00;;;;;;;7.60;73.13;99304.22;16798196;26;20010;-48
2024/04/15 21:35:42;;;;;;;0.00;0.00;;;;;;;7.14;77.02;99324.28;16753134;26;20076;-54
2024/04/15 21:43:20;;;;;;;0.00;0.00;;;;;;;6.41;78.18;99318.03;16781982;26;19996;-50
2024/04/15 21:50:55;;;;;;;0.00;0.00;;;;;;;6.14;79.17;99336.88;16732196;26;20101;-49
2024/04/15 21:58:38;;;;;;;0.00;0.00;;;;;;;6.21;80.42;99336.84;16771173;26;20192;-51
2024/04/15 22:06:13;;;;;;;0.00;0.00;;;;;;;6.38;80.56;99356.56;16799947;26;19999;-48
2024/04/15 22:13:51;;;;;;;0.00;0.00;;;;;;;6.33;82.79;99359.88;16796531;26;20078;-52
2024/04/15 22:21:28;;;;;;;0.00;0.00;;;;;;;6.25;84.40;99338.88;16772013;26;20027;-48
2024/04/15 22:29:06;;;;;;;0.00;0.00;;;;;;;6.54;84.11;99360.56;16788917;26;20034;-50
2024/04/15 22:36:41;;;;;;;0.00;0.00;;;;;;;6.46;83.00;99363.50;16776064;26;20098;-50
2024/04/15 22:44:19;;;;;;;0.00;0.00;;;;;;;6.35;83.02;99376.50;16795715;26;20403;-47
2024/04/15 22:51:54;;;;;;;0.00;0.00;;;;;;;6.32;82.49;99397.41;16780208;26;20667;-47
2024/04/15 22:59:34;;;;;;;0.00;0.00;;;;;;;6.26;81.88;99403.63;16787689;26;20054;-55
2024/04/15 23:07:09;;;;;;;0.00;0.00;;;;;;;6.58;79.03;99399.91;16747287;26;20071;-54
2024/04/15 23:14:48;;;;;;;0.17;0.17;;;;;;;6.32;79.24;99414.22;16793906;26;20040;-49
2024/04/15 23:22:23;;;;;;;0.03;0.03;;;;;;;6.31;78.53;99415.25;16794277;26;20014;-50
2024/04/15 23:30:02;;;;;;;0.00;0.00;;;;;;;6.21;78.59;99430.09;16792225;26;20000;-52
2024/04/15 23:37:37;;;;;;;0.00;0.00;;;;;;;6.19;78.49;99438.28;16772524;26;19999;-54
2024/04/15 23:45:15;;;;;;;0.00;0.00;;;;;;;6.21;77.70;99433.56;16758783;26;20094;-51
2024/04/15 23:53:08;;;;;;;0.00;0.00;;;;;;;6.49;76.18;99435.84;16786786;26;20048;-48
